Time;durP1;ratioP1;P1;durP2;ratioP2;P2;SDS_P1;SDS_P2;PMS_P1;PMS_P2;Temp;Humidity;BMP_temperature;BMP_pressure;BME280_temperature;BME280_humidity;BME280_pressure;Samples;Min_cycle;Max_cycle;Signal;HPM_P1;HPM_P2
2021/05/18 00:00:55;;;;;;;3.73;1.10;;;15.10;99.90;;;;;;5085201;28;20178;-72
2021/05/18 00:03:22;;;;;;;1.53;1.00;;;15.10;99.90;;;;;;5074548;28;20190;-72
2021/05/18 00:05:55;;;;;;;4.00;1.20;;;14.90;99.90;;;;;;5067405;28;20240;-72
2021/05/18 00:08:24;;;;;;;5.63;1.20;;;15.00;99.90;;;;;;5067576;28;20277;-72
2021/05/18 00:13:51;;;;;;;1.83;1.20;;;14.80;99.90;;;;;;5083554;28;20206;-73
2021/05/18 00:16:18;;;;;;;1.77;1.10;;;14.90;99.90;;;;;;5080339;28;20505;-72
2021/05/18 00:18:45;;;;;;;3.43;1.00;;;14.90;99.90;;;;;;5086419;28;20201;-70
2021/05/18 00:21:11;;;;;;;3.00;1.20;;;14.80;99.90;;;;;;5079718;28;20769;-70
2021/05/18 00:23:38;;;;;;;2.63;1.47;;;14.70;99.90;;;;;;5066715;28;20194;-70
2021/05/18 00:26:08;;;;;;;5.37;1.07;;;14.80;99.90;;;;;;5081735;28;20186;-70
2021/05/18 00:28:34;;;;;;;3.67;1.00;;;14.70;99.90;;;;;;5084982;28;20264;-70
2021/05/18 00:31:00;;;;;;;1.30;0.90;;;14.60;99.90;;;;;;5084125;28;20194;-70
2021/05/18 00:33:29;;;;;;;2.13;1.20;;;14.60;99.90;;;;;;5076518;28;20240;-70
2021/05/18 00:35:55;;;;;;;1.10;0.97;;;14.60;99.90;;;;;;5064352;28;21050;-70
2021/05/18 00:38:22;;;;;;;1.53;0.97;;;14.60;99.90;;;;;;5064199;28;20222;-70
2021/05/18 00:40:50;;;;;;;1.40;1.07;;;14.70;99.90;;;;;;5082355;28;20221;-71
2021/05/18 00:43:17;;;;;;;2.97;1.13;;;14.80;99.90;;;;;;5081469;28;20201;-70
2021/05/18 00:45:48;;;;;;;1.93;1.00;;;14.80;99.90;;;;;;5068834;28;20190;-70
2021/05/18 00:48:18;;;;;;;3.83;0.97;;;15.00;99.90;;;;;;5080313;28;20197;-70
2021/05/18 00:50:54;;;;;;;2.10;1.03;;;15.00;99.90;;;;;;5085674;28;20670;-70
2021/05/18 00:53:21;;;;;;;2.23;1.10;;;15.10;99.90;;;;;;5101196;27;20288;-73
2021/05/18 00:55:56;;;;;;;2.80;1.07;;;15.30;99.90;;;;;;5085795;28;20193;-73
2021/05/18 00:58:33;;;;;;;1.70;1.00;;;15.40;99.90;;;;;;5065336;28;20560;-72
2021/05/18 01:01:11;;;;;;;1.97;0.83;;;15.40;99.90;;;;;;5082549;28;20293;-70
2021/05/18 01:03:38;;;;;;;2.17;1.00;;;15.40;99.90;;;;;;5079070;28;20189;-71
2021/05/18 01:08:48;;;;;;;1.90;1.07;;;15.50;99.90;;;;;;5079204;28;20190;-71
2021/05/18 01:11:19;;;;;;;3.27;0.87;;;15.50;99.90;;;;;;5100709;28;20252;-71
2021/05/18 01:13:46;;;;;;;8.07;1.03;;;15.50;99.90;;;;;;5082179;28;20992;-71
2021/05/18 01:16:12;;;;;;;1.03;0.83;;;15.50;99.90;;;;;;5076959;28;20737;-71
2021/05/18 01:18:44;;;;;;;2.83;1.23;;;15.60;99.90;;;;;;5081976;28;20190;-71
2021/05/18 01:21:15;;;;;;;2.10;1.00;;;15.60;99.90;;;;;;5078835;28;20182;-71
2021/05/18 01:23:42;;;;;;;2.90;0.90;;;15.70;99.90;;;;;;5086275;28;20678;-73
2021/05/18 01:26:11;;;;;;;3.60;1.20;;;15.80;99.90;;;;;;5061604;28;20183;-73
2021/05/18 01:28:37;;;;;;;3.90;1.20;;;15.80;99.90;;;;;;5080485;28;20300;-72
2021/05/18 01:31:07;;;;;;;3.30;1.30;;;15.90;99.90;;;;;;5064693;28;20183;-73
2021/05/18 01:33:33;;;;;;;4.83;1.07;;;15.90;99.90;;;;;;5082163;28;20304;-71
2021/05/18 01:36:08;;;;;;;4.27;0.97;;;15.90;99.90;;;;;;5071283;28;20190;-73
2021/05/18 01:44:08;;;;;;;4.67;1.10;;;15.80;99.90;;;;;;5081012;28;20213;-73
2021/05/18 01:46:35;;;;;;;4.97;1.07;;;15.70;99.90;;;;;;5083767;28;20194;-73
2021/05/18 01:49:09;;;;;;;3.40;1.10;;;15.80;99.90;;;;;;5080301;28;20329;-73
2021/05/18 01:51:45;;;;;;;1.93;1.00;;;15.90;99.90;;;;;;5085653;28;20650;-72
2021/05/18 01:54:23;;;;;;;2.67;0.90;;;15.90;99.90;;;;;;5081197;28;20959;-73
2021/05/18 01:59:21;;;;;;;2.70;1.10;;;15.90;99.90;;;;;;5082886;28;20280;-70
2021/05/18 02:01:52;;;;;;;1.83;0.87;;;15.90;99.90;;;;;;5085410;28;20189;-73
2021/05/18 02:04:36;;;;;;;1.77;0.90;;;15.80;99.90;;;;;;5078366;28;20244;-70
2021/05/18 02:07:11;;;;;;;1.80;1.00;;;15.90;99.90;;;;;;5070628;28;20275;-71
2021/05/18 02:09:39;;;;;;;2.80;1.20;;;15.90;99.90;;;;;;5079891;28;20264;-70
2021/05/18 02:12:06;;;;;;;4.07;1.17;;;15.90;99.90;;;;;;5081226;28;20195;-71
2021/05/18 02:14:35;;;;;;;1.90;1.07;;;16.00;99.90;;;;;;5084878;28;20179;-71
2021/05/18 02:17:14;;;;;;;2.83;0.97;;;16.10;99.90;;;;;;5076162;28;20194;-71
2021/05/18 02:25:24;;;;;;;4.07;0.90;;;16.30;99.90;;;;;;5077547;28;20218;-71
2021/05/18 02:27:53;;;;;;;3.77;1.40;;;16.30;99.90;;;;;;5079957;28;20665;-70
2021/05/18 02:30:22;;;;;;;1.83;1.00;;;16.40;99.90;;;;;;5078782;28;20191;-72
2021/05/18 02:32:49;;;;;;;2.07;1.07;;;16.40;99.90;;;;;;5080233;28;20328;-71
2021/05/18 02:35:17;;;;;;;2.80;1.10;;;16.50;99.90;;;;;;5082000;28;20209;-70
2021/05/18 02:37:47;;;;;;;3.47;1.33;;;16.50;99.90;;;;;;5070148;28;20242;-73
2021/05/18 02:40:29;;;;;;;1.30;1.10;;;16.60;99.90;;;;;;5084420;28;20732;-72
2021/05/18 02:42:56;;;;;;;1.30;0.80;;;16.60;99.90;;;;;;5080923;28;20271;-73
2021/05/18 02:45:41;;;;;;;2.30;1.03;;;16.60;99.90;;;;;;5065851;28;20258;-73
2021/05/18 02:50:53;;;;;;;2.13;0.97;;;16.60;99.90;;;;;;5096711;27;20186;-73
2021/05/18 02:53:20;;;;;;;2.47;1.07;;;16.70;99.90;;;;;;5064085;28;20207;-73
2021/05/18 02:58:13;;;;;;;2.70;1.17;;;17.10;99.90;;;;;;5085341;28;20179;-73
2021/05/18 03:00:41;;;;;;;2.57;1.03;;;17.20;99.90;;;;;;5089703;28;20235;-73
2021/05/18 03:03:11;;;;;;;2.23;1.00;;;17.20;99.90;;;;;;5088118;28;20200;-73
2021/05/18 03:05:37;;;;;;;3.33;1.20;;;17.20;99.90;;;;;;5070837;28;20233;-72
2021/05/18 03:08:04;;;;;;;2.33;1.00;;;17.20;99.90;;;;;;5075204;28;20190;-72
2021/05/18 03:10:31;;;;;;;3.53;1.20;;;17.20;99.90;;;;;;5069245;28;20190;-73
2021/05/18 03:12:58;;;;;;;2.43;1.13;;;17.40;99.90;;;;;;5065569;28;20206;-73
2021/05/18 03:15:24;;;;;;;2.90;0.87;;;17.40;99.90;;;;;;5078418;28;20260;-73
2021/05/18 03:17:50;;;;;;;2.00;1.07;;;17.30;99.90;;;;;;5069712;28;20186;-71
2021/05/18 03:20:18;;;;;;;2.80;0.90;;;17.30;99.90;;;;;;5077362;28;20190;-71
2021/05/18 03:22:45;;;;;;;1.27;0.70;;;17.30;99.90;;;;;;5081518;28;20182;-72
2021/05/18 03:25:12;;;;;;;1.90;0.80;;;17.20;99.90;;;;;;5070831;28;20232;-72
2021/05/18 03:27:42;;;;;;;1.27;0.90;;;17.30;99.90;;;;;;5065635;28;20182;-70
2021/05/18 03:35:46;;;;;;;3.00;0.90;;;17.40;99.90;;;;;;5050368;28;20194;-72
2021/05/18 03:38:19;;;;;;;2.93;1.20;;;17.30;99.90;;;;;;5082355;28;20224;-73
2021/05/18 03:40:59;;;;;;;2.67;1.10;;;17.30;99.90;;;;;;5077375;28;20228;-72
2021/05/18 03:54:24;;;;;;;4.13;1.00;;;17.90;99.90;;;;;;5085577;28;20371;-71
2021/05/18 04:02:42;;;;;;;2.37;1.20;;;18.00;99.90;;;;;;5087086;28;20210;-73
2021/05/18 04:10:07;;;;;;;2.47;1.20;;;18.00;99.90;;;;;;5066467;28;20179;-73
2021/05/18 04:19:08;;;;;;;2.33;0.70;;;18.50;99.90;;;;;;5085017;28;20182;-73
2021/05/18 04:43:30;;;;;;;1.20;0.80;;;18.90;99.90;;;;;;5078839;28;20189;-71
2021/05/18 04:48:54;;;;;;;1.77;1.13;;;19.20;99.90;;;;;;5082877;28;20190;-70
2021/05/18 04:51:32;;;;;;;3.57;0.80;;;19.60;99.90;;;;;;5083458;28;20189;-71
2021/05/18 05:07:10;;;;;;;1.60;0.80;;;20.30;99.90;;;;;;5083282;28;20202;-71
2021/05/18 05:09:41;;;;;;;2.03;0.93;;;20.20;99.90;;;;;;5080851;28;20194;-70
2021/05/18 05:14:52;;;;;;;2.30;0.90;;;20.70;99.90;;;;;;5078647;28;20185;-70
2021/05/18 05:17:18;;;;;;;2.27;0.90;;;20.90;99.90;;;;;;5085339;28;20194;-71
2021/05/18 05:19:44;;;;;;;1.00;0.70;;;20.60;99.90;;;;;;5082801;28;20633;-70
2021/05/18 05:22:13;;;;;;;3.33;0.70;;;20.40;99.90;;;;;;5082280;28;20190;-70
2021/05/18 05:24:40;;;;;;;2.80;1.00;;;20.40;99.90;;;;;;5069272;28;20216;-70
2021/05/18 05:27:07;;;;;;;3.53;0.90;;;20.50;99.90;;;;;;5064928;28;20186;-71
2021/05/18 05:29:33;;;;;;;2.70;0.93;;;20.50;99.90;;;;;;5070133;28;20527;-71
2021/05/18 05:32:04;;;;;;;4.80;1.10;;;20.70;99.90;;;;;;5062854;28;20182;-71
2021/05/18 05:34:30;;;;;;;1.20;0.83;;;20.80;99.90;;;;;;5100324;28;20256;-71
2021/05/18 05:36:56;;;;;;;2.93;1.43;;;20.70;99.90;;;;;;5083336;28;20190;-71
2021/05/18 05:39:23;;;;;;;2.83;0.90;;;20.40;99.90;;;;;;5063422;28;20194;-70
2021/05/18 05:41:52;;;;;;;2.63;1.00;;;20.70;99.90;;;;;;5081309;28;20221;-71
2021/05/18 05:44:19;;;;;;;2.30;1.03;;;20.70;99.90;;;;;;5076415;28;20204;-71
2021/05/18 05:46:46;;;;;;;1.67;0.90;;;21.00;99.90;;;;;;5079128;28;20221;-70
2021/05/18 05:49:12;;;;;;;2.97;1.10;;;20.90;99.90;;;;;;5082444;28;20190;-71
2021/05/18 05:51:38;;;;;;;4.73;0.90;;;20.90;99.90;;;;;;5063180;28;20220;-70
2021/05/18 05:54:06;;;;;;;5.13;1.10;;;21.00;99.90;;;;;;5082271;28;20225;-71
2021/05/18 05:56:32;;;;;;;4.87;1.20;;;21.10;99.90;;;;;;5078867;28;20221;-72
2021/05/18 05:59:00;;;;;;;2.30;1.03;;;21.10;99.90;;;;;;5082703;28;20182;-70
2021/05/18 06:01:29;;;;;;;1.80;0.80;;;21.00;99.90;;;;;;5066102;28;20260;-70
2021/05/18 06:03:56;;;;;;;4.83;1.10;;;21.00;99.90;;;;;;5080581;28;20194;-70
2021/05/18 06:06:22;;;;;;;2.23;0.93;;;21.20;99.90;;;;;;5058887;28;20210;-70
2021/05/18 06:08:49;;;;;;;2.77;1.10;;;21.40;99.90;;;;;;5081503;28;20243;-71
2021/05/18 06:48:27;;;;;;;5.10;1.30;;;22.90;99.90;;;;;;5082857;28;20589;-71
2021/05/18 06:50:53;;;;;;;6.53;1.17;;;22.70;99.90;;;;;;5086348;28;20259;-70
2021/05/18 06:53:20;;;;;;;4.87;1.40;;;22.80;99.90;;;;;;5085999;28;20218;-70
2021/05/18 06:55:48;;;;;;;4.10;1.33;;;22.90;99.90;;;;;;5086318;28;20190;-70
2021/05/18 06:58:21;;;;;;;3.20;0.90;;;22.90;99.90;;;;;;5075041;28;20193;-71
2021/05/18 07:00:49;;;;;;;2.60;1.10;;;23.10;99.90;;;;;;5082815;28;20186;-70
2021/05/18 07:03:20;;;;;;;3.30;1.20;;;23.20;99.90;;;;;;5066723;28;20852;-70
2021/05/18 07:10:41;;;;;;;4.23;1.30;;;23.30;99.90;;;;;;5084484;28;20197;-71
2021/05/18 07:13:09;;;;;;;3.60;1.33;;;23.40;99.90;;;;;;5084629;28;20575;-71
2021/05/18 07:15:38;;;;;;;7.60;1.87;;;23.50;99.90;;;;;;5058742;28;20202;-71
2021/05/18 07:18:05;;;;;;;3.47;1.60;;;23.50;99.90;;;;;;5083437;28;20297;-70
2021/05/18 07:20:32;;;;;;;4.47;1.37;;;23.60;99.90;;;;;;5084882;28;20217;-72
2021/05/18 07:23:06;;;;;;;4.13;1.47;;;23.60;99.90;;;;;;5077563;28;20704;-72
2021/05/18 07:25:33;;;;;;;5.83;1.50;;;23.70;99.90;;;;;;5081573;28;20194;-70
2021/05/18 07:28:00;;;;;;;6.97;1.50;;;23.80;99.90;;;;;;5083279;28;20194;-70
2021/05/18 07:30:27;;;;;;;7.80;1.33;;;23.90;99.90;;;;;;5084059;28;20193;-72
2021/05/18 07:32:53;;;;;;;4.73;1.17;;;24.00;99.90;;;;;;5081363;28;20225;-72
2021/05/18 07:35:19;;;;;;;6.80;1.67;;;24.00;99.90;;;;;;5074941;28;20658;-70
2021/05/18 07:37:46;;;;;;;5.85;1.70;;;24.00;99.90;;;;;;5084670;28;20190;-72
2021/05/18 07:40:13;;;;;;;5.70;1.60;;;24.20;99.90;;;;;;5081025;28;20210;-71
2021/05/18 07:42:39;;;;;;;10.73;1.90;;;24.20;99.90;;;;;;5066727;28;20231;-72
2021/05/18 07:45:06;;;;;;;7.00;1.70;;;24.20;99.90;;;;;;5078878;28;20276;-72
2021/05/18 07:47:35;;;;;;;5.57;1.93;;;24.30;99.90;;;;;;5059868;28;20730;-70
2021/05/18 07:50:10;;;;;;;8.83;1.90;;;24.20;99.90;;;;;;5063950;28;20190;-72
2021/05/18 08:06:38;;;;;;;6.83;1.60;;;24.70;99.90;;;;;;5078995;28;20221;-72
2021/05/18 08:09:05;;;;;;;7.23;1.87;;;24.70;99.90;;;;;;5087130;28;20194;-72
2021/05/18 08:11:31;;;;;;;13.97;1.80;;;24.70;99.90;;;;;;5082205;28;20251;-73
2021/05/18 08:13:58;;;;;;;11.68;1.80;;;24.70;99.90;;;;;;5061692;28;20207;-70
2021/05/18 10:37:57;;;;;;;7.63;2.03;;;27.60;99.90;;;;;;5084093;28;20190;-70
2021/05/18 10:40:23;;;;;;;6.43;2.05;;;27.70;99.90;;;;;;5083802;28;20178;-71
2021/05/18 10:43:22;;;;;;;10.32;1.95;;;27.90;99.90;;;;;;5084871;28;20630;-71
2021/05/18 10:45:55;;;;;;;8.88;2.10;;;27.80;99.90;;;;;;5082170;28;20197;-70
2021/05/18 10:48:52;;;;;;;7.90;1.48;;;27.80;99.90;;;;;;5073956;28;20186;-70
2021/05/18 10:51:50;;;;;;;9.65;1.67;;;28.00;99.90;;;;;;5070842;28;20952;-70
2021/05/18 10:54:58;;;;;;;8.88;1.65;;;28.00;99.90;;;;;;5082723;28;20237;-70
2021/05/18 10:57:31;;;;;;;9.38;1.58;;;28.00;99.90;;;;;;5082564;28;20216;-70
2021/05/18 11:00:07;;;;;;;9.30;1.63;;;28.00;99.90;;;;;;5068636;28;20182;-70
2021/05/18 11:02:40;;;;;;;10.15;1.70;;;27.90;99.90;;;;;;5079961;28;20225;-70
2021/05/18 11:05:11;;;;;;;6.43;1.80;;;27.90;99.90;;;;;;5084584;28;20236;-70
2021/05/18 11:07:40;;;;;;;7.50;1.80;;;27.90;99.90;;;;;;5086693;28;20685;-70
2021/05/18 11:10:20;;;;;;;10.68;1.58;;;27.70;99.90;;;;;;5086169;28;20194;-70
2021/05/18 11:12:51;;;;;;;5.60;1.38;;;27.50;99.90;;;;;;5087928;28;20216;-72
2021/05/18 11:15:20;;;;;;;7.50;1.88;;;26.40;99.90;;;;;;5068031;28;20569;-71
2021/05/18 11:17:50;;;;;;;9.07;1.42;;;26.60;99.90;;;;;;5093904;27;20191;-70
2021/05/18 11:20:26;;;;;;;6.32;1.35;;;26.90;99.90;;;;;;5082583;28;20343;-70
2021/05/18 11:23:28;;;;;;;11.73;1.63;;;27.40;99.90;;;;;;5082298;28;20178;-70
2021/05/18 11:26:03;;;;;;;5.60;1.95;;;27.50;99.90;;;;;;5101073;27;20201;-70
2021/05/18 11:28:40;;;;;;;5.40;1.17;;;27.50;99.90;;;;;;5080596;28;20984;-70
2021/05/18 11:31:12;;;;;;;6.35;1.33;;;27.70;99.90;;;;;;5078378;28;20181;-70
2021/05/18 11:33:41;;;;;;;6.38;1.40;;;27.70;99.90;;;;;;5064791;28;20214;-70
2021/05/18 11:36:16;;;;;;;5.72;1.40;;;27.80;99.90;;;;;;5081428;28;20880;-70
2021/05/18 11:39:06;;;;;;;10.45;1.40;;;27.70;99.90;;;;;;5083872;28;20190;-70
2021/05/18 11:41:38;;;;;;;7.40;1.48;;;27.80;99.90;;;;;;5078877;28;20183;-69
2021/05/18 11:44:07;;;;;;;6.38;1.10;;;27.70;99.90;;;;;;5066058;28;20584;-70
2021/05/18 11:46:41;;;;;;;6.10;1.30;;;27.70;99.90;;;;;;5067496;28;20224;-70
2021/05/18 11:49:11;;;;;;;7.75;1.50;;;27.70;99.90;;;;;;5076594;28;20242;-70
2021/05/18 11:51:50;;;;;;;5.38;1.30;;;27.90;99.90;;;;;;5082742;28;20645;-70
2021/05/18 11:54:22;;;;;;;3.42;1.33;;;27.90;99.90;;;;;;5062484;28;20214;-71
2021/05/18 11:56:51;;;;;;;3.95;1.20;;;27.90;99.40;;;;;;5081157;28;20265;-69
2021/05/18 11:59:21;;;;;;;7.63;1.50;;;27.80;99.50;;;;;;5065518;28;20271;-70
2021/05/18 12:01:56;;;;;;;5.65;1.50;;;27.70;98.00;;;;;;5097779;28;21589;-69
2021/05/18 12:04:25;;;;;;;5.75;1.13;;;27.70;99.30;;;;;;5083068;28;20211;-69
2021/05/18 12:07:05;;;;;;;2.95;1.15;;;27.70;99.00;;;;;;5082022;28;20236;-70
2021/05/18 12:09:36;;;;;;;5.13;1.20;;;27.60;98.40;;;;;;5080960;28;20257;-69
2021/05/18 12:12:11;;;;;;;4.43;1.25;;;27.70;98.30;;;;;;5063372;28;20186;-69
2021/05/18 12:14:48;;;;;;;2.72;1.08;;;27.80;98.50;;;;;;5099706;28;20271;-70
2021/05/18 12:17:28;;;;;;;4.30;1.45;;;27.80;97.70;;;;;;5064645;28;20185;-70
2021/05/18 12:19:57;;;;;;;5.25;1.20;;;27.70;97.50;;;;;;5088526;28;20204;-70
2021/05/18 12:22:24;;;;;;;3.40;1.20;;;27.60;97.10;;;;;;5079270;28;20280;-70
2021/05/18 12:24:50;;;;;;;4.40;1.25;;;27.20;97.10;;;;;;5064602;28;20194;-71
2021/05/18 12:27:18;;;;;;;7.95;1.27;;;27.10;97.80;;;;;;5062661;28;20198;-70
2021/05/18 12:29:52;;;;;;;5.43;1.30;;;27.40;96.80;;;;;;5063388;28;20285;-70
2021/05/18 12:32:39;;;;;;;4.15;0.98;;;27.30;96.60;;;;;;5079596;28;20186;-70
2021/05/18 12:35:05;;;;;;;2.42;1.08;;;27.10;97.30;;;;;;5084209;28;20197;-70
2021/05/18 12:37:34;;;;;;;4.22;1.25;;;26.90;96.30;;;;;;5083232;28;20192;-70
2021/05/18 12:40:06;;;;;;;6.15;1.20;;;26.70;97.70;;;;;;5067815;28;20186;-70
2021/05/18 12:42:36;;;;;;;4.60;1.27;;;26.80;97.20;;;;;;5070045;28;20186;-70
2021/05/18 12:45:10;;;;;;;4.15;1.10;;;27.10;96.00;;;;;;5083735;28;20289;-70
2021/05/18 12:47:39;;;;;;;3.22;0.90;;;26.90;96.70;;;;;;5068575;28;20579;-70
2021/05/18 12:50:16;;;;;;;3.35;1.20;;;27.00;96.70;;;;;;5081022;28;20190;-70
2021/05/18 12:52:51;;;;;;;4.75;1.33;;;27.10;97.10;;;;;;5075095;28;20200;-70
2021/05/18 12:55:24;;;;;;;1.95;1.10;;;27.20;96.30;;;;;;5084501;28;20193;-70
2021/05/18 12:58:07;;;;;;;5.70;1.05;;;27.20;95.40;;;;;;5067559;28;20197;-70
2021/05/18 13:00:42;;;;;;;4.80;1.35;;;27.00;96.10;;;;;;5077118;28;20189;-70
2021/05/18 13:03:16;;;;;;;2.97;1.13;;;27.20;95.30;;;;;;5064922;28;20186;-70
2021/05/18 13:05:49;;;;;;;4.38;1.20;;;27.00;96.60;;;;;;5077010;28;20216;-70
2021/05/18 13:08:20;;;;;;;3.75;1.17;;;27.30;95.20;;;;;;5076284;28;20195;-70
2021/05/18 13:14:01;;;;;;;9.00;1.75;;;27.20;96.10;;;;;;5050047;28;20232;-70
2021/05/18 13:16:37;;;;;;;4.68;1.40;;;27.20;97.00;;;;;;5081732;28;20200;-70
2021/05/18 13:19:09;;;;;;;2.88;1.05;;;27.30;98.10;;;;;;5083402;28;20182;-70
2021/05/18 13:21:40;;;;;;;7.65;1.60;;;27.20;97.60;;;;;;5079663;28;20276;-70
2021/05/18 13:26:40;;;;;;;7.43;1.42;;;27.10;98.60;;;;;;5085539;28;20192;-70
2021/05/18 13:29:17;;;;;;;9.27;1.83;;;27.10;97.80;;;;;;5084361;28;20323;-70
2021/05/18 13:31:50;;;;;;;3.72;1.33;;;27.10;97.90;;;;;;5080145;28;20186;-70
2021/05/18 13:34:17;;;;;;;3.83;1.63;;;26.70;98.30;;;;;;5080609;28;20219;-70
2021/05/18 13:36:46;;;;;;;5.90;1.60;;;26.40;98.80;;;;;;5084670;28;20239;-70
2021/05/18 13:39:40;;;;;;;4.95;1.33;;;26.60;98.20;;;;;;5082470;28;20198;-70
2021/05/18 13:42:07;;;;;;;3.47;1.30;;;26.50;97.30;;;;;;5072572;28;20206;-70
2021/05/18 13:44:33;;;;;;;6.03;1.38;;;26.30;96.80;;;;;;5061711;28;20183;-70
2021/05/18 13:47:00;;;;;;;7.47;1.55;;;26.30;97.60;;;;;;5079355;28;20298;-70
2021/05/18 13:49:27;;;;;;;9.35;1.90;;;26.30;98.00;;;;;;5079070;28;20208;-70
2021/05/18 13:51:54;;;;;;;3.70;1.33;;;26.50;98.10;;;;;;5075810;28;20272;-70
2021/05/18 13:54:20;;;;;;;4.22;1.40;;;26.50;96.80;;;;;;5077585;28;20217;-72
2021/05/18 13:56:48;;;;;;;4.25;1.25;;;26.30;98.00;;;;;;5077029;28;20324;-70
2021/05/18 13:59:15;;;;;;;4.15;1.50;;;26.30;97.30;;;;;;5081301;28;20597;-70
2021/05/18 14:01:41;;;;;;;4.45;1.35;;;26.30;97.30;;;;;;5077741;28;20195;-71
2021/05/18 14:04:07;;;;;;;7.18;1.60;;;26.30;97.10;;;;;;5073840;28;20196;-71
2021/05/18 14:06:35;;;;;;;5.43;1.35;;;26.50;96.80;;;;;;5062338;28;20214;-70
2021/05/18 14:09:01;;;;;;;4.88;1.50;;;26.40;96.80;;;;;;5080978;28;20238;-70
2021/05/18 14:11:27;;;;;;;7.10;1.48;;;26.40;97.70;;;;;;5077335;28;20214;-71
2021/05/18 14:13:55;;;;;;;14.00;2.13;;;26.40;96.90;;;;;;5066095;28;20199;-72
2021/05/18 14:16:23;;;;;;;31.00;3.33;;;26.40;96.90;;;;;;5078490;28;20635;-70
2021/05/18 14:18:53;;;;;;;6.20;1.77;;;26.30;97.50;;;;;;5078454;28;20198;-71
2021/05/18 14:21:24;;;;;;;10.10;1.73;;;25.80;96.80;;;;;;5084614;28;20178;-72
2021/05/18 14:26:29;;;;;;;3.67;1.30;;;25.40;96.90;;;;;;5080987;28;20298;-72
2021/05/18 14:29:00;;;;;;;5.80;1.25;;;25.60;96.70;;;;;;5096547;28;20263;-72
2021/05/18 14:31:27;;;;;;;5.75;1.30;;;25.80;96.60;;;;;;5094697;28;20285;-72
2021/05/18 14:33:57;;;;;;;4.55;1.33;;;25.60;96.90;;;;;;5067065;28;20293;-70
2021/05/18 14:36:29;;;;;;;6.65;1.50;;;25.90;96.70;;;;;;5085125;28;20231;-69
2021/05/18 14:38:55;;;;;;;6.05;1.20;;;26.00;96.70;;;;;;5084607;28;21143;-69
2021/05/18 14:56:43;;;;;;;3.22;0.93;;;26.10;90.70;;;;;;5086073;28;20269;-73
2021/05/18 14:59:10;;;;;;;2.90;0.95;;;26.20;91.40;;;;;;5078216;28;20297;-71
2021/05/18 15:01:36;;;;;;;3.25;0.82;;;26.10;85.80;;;;;;5082243;28;20335;-72
2021/05/18 15:04:03;;;;;;;4.72;1.00;;;25.90;90.60;;;;;;5080959;28;20198;-72
2021/05/18 15:07:26;;;;;;;5.40;1.00;;;25.90;91.10;;;;;;5075280;28;20207;-73
2021/05/18 15:09:52;;;;;;;8.85;1.98;;;25.70;92.80;;;;;;5069572;28;20963;-73
2021/05/18 15:12:19;;;;;;;6.57;1.60;;;25.60;93.10;;;;;;5063483;28;20635;-72
2021/05/18 15:14:45;;;;;;;7.35;1.48;;;25.80;94.00;;;;;;5066223;28;20221;-72
2021/05/18 15:17:11;;;;;;;8.02;1.67;;;25.70;95.10;;;;;;5048901;28;20194;-73
2021/05/18 15:19:38;;;;;;;6.78;1.48;;;25.50;96.00;;;;;;5080755;28;20206;-72
2021/05/18 15:22:04;;;;;;;8.07;1.58;;;25.50;97.40;;;;;;5078227;28;20198;-72
2021/05/18 15:24:31;;;;;;;7.38;1.63;;;25.40;98.70;;;;;;5045478;28;20216;-72
2021/05/18 15:26:58;;;;;;;11.82;2.05;;;25.40;99.90;;;;;;5064260;28;20194;-71
2021/05/18 15:29:26;;;;;;;9.35;2.35;;;25.20;99.90;;;;;;5059904;28;20208;-72
2021/05/18 15:31:53;;;;;;;7.70;1.60;;;25.20;99.90;;;;;;5064469;28;20690;-72
2021/05/18 15:34:20;;;;;;;6.97;1.92;;;25.20;99.90;;;;;;5078629;28;20226;-72
2021/05/18 15:36:47;;;;;;;8.93;2.17;;;25.00;99.90;;;;;;5079032;28;20618;-71
2021/05/18 15:39:13;;;;;;;9.27;2.00;;;25.10;99.90;;;;;;5074338;28;20182;-72
2021/05/18 15:41:40;;;;;;;7.88;2.10;;;25.10;99.90;;;;;;5075412;28;20327;-73
2021/05/18 15:44:07;;;;;;;11.33;1.67;;;25.10;99.90;;;;;;5081168;28;21098;-72
2021/05/18 15:46:33;;;;;;;22.00;2.87;;;25.10;99.90;;;;;;5079494;28;20201;-72
2021/05/18 15:49:00;;;;;;;15.55;2.42;;;25.00;99.90;;;;;;5084124;28;20199;-71
2021/05/18 15:51:26;;;;;;;7.13;2.30;;;24.80;99.90;;;;;;5082560;28;20191;-72
2021/05/18 15:53:53;;;;;;;5.13;1.60;;;24.50;99.90;;;;;;5082134;28;20285;-72
2021/05/18 15:56:19;;;;;;;7.03;1.73;;;24.60;99.90;;;;;;5066063;28;20182;-72
2021/05/18 15:58:46;;;;;;;7.47;2.00;;;24.50;99.90;;;;;;5081724;28;20788;-72
2021/05/18 16:01:13;;;;;;;7.88;2.42;;;24.30;99.90;;;;;;5060676;28;20185;-72
2021/05/18 16:03:39;;;;;;;8.63;2.13;;;24.30;99.90;;;;;;5081678;28;20273;-72
2021/05/18 16:06:05;;;;;;;10.57;2.67;;;23.70;99.90;;;;;;5078257;28;20518;-71
2021/05/18 16:11:06;;;;;;;12.90;2.63;;;23.80;99.90;;;;;;5075585;28;20182;-70
2021/05/18 16:13:34;;;;;;;9.77;2.10;;;23.80;99.90;;;;;;5078865;28;20213;-72
2021/05/18 16:16:11;;;;;;;11.50;3.17;;;23.70;99.90;;;;;;5082697;28;20211;-69
2021/05/18 16:18:39;;;;;;;14.10;2.33;;;23.40;99.90;;;;;;5079003;28;20265;-70
2021/05/18 16:21:11;;;;;;;9.07;2.30;;;23.10;99.90;;;;;;5081660;28;20277;-72
2021/05/18 16:23:40;;;;;;;11.30;2.70;;;23.10;99.90;;;;;;5078895;28;20187;-70
2021/05/18 16:26:08;;;;;;;11.20;2.10;;;23.00;99.90;;;;;;5063805;28;20221;-70
2021/05/18 16:28:35;;;;;;;10.13;2.17;;;23.10;99.90;;;;;;5068540;28;20186;-70
2021/05/18 16:31:03;;;;;;;10.17;2.60;;;23.00;99.90;;;;;;5082707;28;20183;-71
2021/05/18 16:33:30;;;;;;;9.33;2.30;;;23.00;99.90;;;;;;5082610;28;20210;-70
2021/05/18 16:35:57;;;;;;;10.53;2.67;;;22.80;99.90;;;;;;5081747;28;20201;-70
2021/05/18 16:38:24;;;;;;;16.27;2.60;;;22.70;99.90;;;;;;5066829;28;20171;-72
2021/05/18 16:40:53;;;;;;;11.73;2.30;;;22.60;99.90;;;;;;5079408;28;20199;-69
2021/05/18 16:43:22;;;;;;;13.07;2.20;;;22.20;99.90;;;;;;5059112;28;20265;-73
2021/05/18 16:45:50;;;;;;;12.40;2.30;;;22.30;99.90;;;;;;5083718;28;20187;-70
2021/05/18 16:48:17;;;;;;;14.47;2.80;;;22.20;99.90;;;;;;5080700;28;20213;-70
2021/05/18 16:50:44;;;;;;;12.73;2.63;;;22.10;99.90;;;;;;5078417;28;20218;-71
2021/05/18 16:53:11;;;;;;;10.43;2.20;;;22.10;99.90;;;;;;5084830;28;20289;-70
2021/05/18 16:55:38;;;;;;;9.90;2.30;;;21.70;99.90;;;;;;5081996;28;20240;-72
2021/05/18 16:58:08;;;;;;;13.23;2.63;;;21.70;99.90;;;;;;5078961;28;20236;-72
2021/05/18 17:00:36;;;;;;;10.33;2.60;;;21.80;99.90;;;;;;5075756;28;20527;-71
2021/05/18 17:03:03;;;;;;;9.67;1.80;;;21.70;99.90;;;;;;5063122;28;20642;-71
2021/05/18 17:05:31;;;;;;;12.03;2.57;;;21.70;99.90;;;;;;5081252;28;20602;-71
2021/05/18 17:08:03;;;;;;;10.77;2.43;;;21.60;99.90;;;;;;5078035;28;20647;-72
2021/05/18 17:10:37;;;;;;;12.47;2.87;;;21.60;99.90;;;;;;5081473;28;20190;-72
2021/05/18 17:13:04;;;;;;;10.23;2.30;;;21.30;99.90;;;;;;5065132;28;20211;-71
2021/05/18 17:15:31;;;;;;;12.40;2.90;;;21.40;99.90;;;;;;5079371;28;20248;-72
2021/05/18 17:17:58;;;;;;;9.27;2.23;;;21.20;99.90;;;;;;5081557;28;20294;-72
2021/05/18 17:20:28;;;;;;;11.37;2.60;;;20.70;99.90;;;;;;5079709;28;20179;-71
2021/05/18 17:22:56;;;;;;;12.53;2.70;;;20.90;99.90;;;;;;5077870;28;20187;-71
2021/05/18 17:25:22;;;;;;;12.27;3.30;;;21.00;99.90;;;;;;5077314;28;20194;-71
2021/05/18 17:27:50;;;;;;;11.50;2.40;;;21.10;99.90;;;;;;5078190;28;20187;-71
2021/05/18 17:30:28;;;;;;;15.10;3.07;;;21.00;99.90;;;;;;5082511;28;20305;-71
2021/05/18 17:32:56;;;;;;;11.83;2.43;;;20.90;99.90;;;;;;5096130;28;20182;-72
2021/05/18 17:35:24;;;;;;;12.30;2.40;;;20.60;99.90;;;;;;5080020;28;20292;-72
2021/05/18 17:37:53;;;;;;;10.57;2.20;;;20.20;99.90;;;;;;5083433;28;20236;-72
2021/05/18 17:40:20;;;;;;;9.80;2.13;;;19.90;99.90;;;;;;5077566;28;21300;-72
2021/05/18 17:42:47;;;;;;;7.27;1.63;;;20.00;99.90;;;;;;5076244;28;20497;-71
2021/05/18 17:45:16;;;;;;;6.93;1.93;;;19.70;99.90;;;;;;5074538;28;20192;-71
2021/05/18 17:47:54;;;;;;;8.13;2.10;;;19.80;99.90;;;;;;5085230;28;20228;-71
2021/05/18 17:50:20;;;;;;;9.90;2.00;;;19.80;99.90;;;;;;5084651;28;20282;-71
2021/05/18 17:52:46;;;;;;;10.20;1.83;;;19.80;99.90;;;;;;5056576;28;20217;-72
2021/05/18 17:55:15;;;;;;;7.23;1.83;;;19.90;99.90;;;;;;5077761;28;20550;-72
2021/05/18 17:57:42;;;;;;;7.07;1.70;;;19.70;99.90;;;;;;5062478;28;20787;-71
2021/05/18 18:00:10;;;;;;;7.60;1.80;;;19.50;99.90;;;;;;5081336;28;20569;-71
2021/05/18 18:02:37;;;;;;;8.67;2.13;;;19.50;99.90;;;;;;5079719;28;20183;-72
2021/05/18 18:05:05;;;;;;;5.33;1.57;;;19.40;99.90;;;;;;5083044;28;20298;-72
2021/05/18 18:07:31;;;;;;;6.53;1.93;;;19.20;99.90;;;;;;5078901;28;20222;-71
2021/05/18 18:10:01;;;;;;;10.67;2.13;;;19.50;99.90;;;;;;5084504;28;20605;-72
2021/05/18 18:12:27;;;;;;;9.70;2.13;;;19.50;99.90;;;;;;5079560;28;20198;-71
2021/05/18 18:14:54;;;;;;;5.57;1.70;;;19.20;99.90;;;;;;5073162;28;20233;-69
2021/05/18 18:17:23;;;;;;;7.63;1.87;;;19.10;99.90;;;;;;5086615;28;20221;-71
2021/05/18 18:19:52;;;;;;;9.67;1.97;;;19.30;99.90;;;;;;5069581;28;20193;-73
2021/05/18 18:22:19;;;;;;;6.70;2.00;;;19.40;99.90;;;;;;5083691;28;20187;-72